Stena Atlantica — ZCPR7 — position and weather

sailwx.info

Track history (hours):
 
Tides and Currents Weather Stations Pressure Air Temp Water Temp Dewpoint Dewpoint Depression Visibility Wind Speed Wind Dir Waves Ship Positions

Stena Atlantica

Last reported at 2014-Sep-21 05:15 UTC. Time now 2014-Sep-21 06:08 UTC.
Position N 57°25' E 010°46'.

Length 245 m; draft 8 m.

Type: Tanker. MMSI: 319161000.

Date/timePositionNaut miles runAvg speedWind from/ knotsBaromVisibWave heightAir tempDewpointWater temp
2014-Sep-21 05:15N 57°25' E 010°46'0 0.0
2014-Sep-21 04:30N 57°25' E 010°46'0 0.1
2014-Sep-21 02:33N 57°25' E 010°45'0 0.1
2014-Sep-21 00:33N 57°25' E 010°45'0 0.0
2014-Sep-20 23:33N 57°25' E 010°45'0 0.0
2014-Sep-20 22:33N 57°25' E 010°45'0 0.0
2014-Sep-20 21:30N 57°25' E 010°45'0 0.0
2014-Sep-20 20:18N 57°25' E 010°45'0 0.0
2014-Sep-20 19:33N 57°25' E 010°45'0 0.1
2014-Sep-20 18:30N 57°25' E 010°45'0 0.1
2014-Sep-20 17:33N 57°25' E 010°45'0 0.0
2014-Sep-20 16:33N 57°25' E 010°45'0 0.0
2014-Sep-20 15:33N 57°25' E 010°45'0 0.0
2014-Sep-20 14:33N 57°25' E 010°45'0 0.1
2014-Sep-20 13:33N 57°25' E 010°45'0 0.1
2014-Sep-20 12:33N 57°25' E 010°45'0 0.0
2014-Sep-20 11:33N 57°25' E 010°45'0 0.0
2014-Sep-20 10:24N 57°25' E 010°45'0 0.0
2014-Sep-20 09:24N 57°25' E 010°45'0 0.0
2014-Sep-20 08:33N 57°25' E 010°45'0 0.0
2014-Sep-20 07:33N 57°25' E 010°45'0 0.1
2014-Sep-20 06:27N 57°25' E 010°45'0 0.0
2014-Sep-20 05:30N 57°25' E 010°45'0 0.1
2014-Sep-20 04:30N 57°25' E 010°45'0 0.1
2014-Sep-20 03:27N 57°25' E 010°45'0 0.2
2014-Sep-20 02:33N 57°25' E 010°45'0 0.2
2014-Sep-20 00:33N 57°25' E 010°45'3 2.7
2014-Sep-19 23:32N 57°27' E 010°47'1 0.9
2014-Sep-19 22:27N 57°28' E 010°48'0 0.0
2014-Sep-19 21:27N 57°28' E 010°48'0 0.0
2014-Sep-19 20:33N 57°28' E 010°48'0 0.0
2014-Sep-19 19:33N 57°28' E 010°48'0 0.0
2014-Sep-19 18:27N 57°28' E 010°48'0 0.1
2014-Sep-19 17:18N 57°28' E 010°48'0 0.0
2014-Sep-19 16:27N 57°28' E 010°48'0 0.0
2014-Sep-19 15:30N 57°28' E 010°48'0 0.0
2014-Sep-19 14:33N 57°28' E 010°48'0 0.1
2014-Sep-19 13:27N 57°28' E 010°48'0 0.1
2014-Sep-19 12:33N 57°28' E 010°48'0 0.1
2014-Sep-19 11:15N 57°28' E 010°48'0 0.0
2014-Sep-19 10:18N 57°29' E 010°48'0 0.0
2014-Sep-19 09:15N 57°29' E 010°48'0 0.0
2014-Sep-19 08:33N 57°29' E 010°48'0 0.0
2014-Sep-19 07:30N 57°29' E 010°48'0 0.0
2014-Sep-19 06:33N 57°29' E 010°48'0 0.0
2014-Sep-19 05:33N 57°29' E 010°48'0 0.0
2014-Sep-19 04:30N 57°29' E 010°48'0 0.1
2014-Sep-19 03:33N 57°28' E 010°48'0 0.0
2014-Sep-19 02:30N 57°28' E 010°48'0 0.0
2014-Sep-19 01:33N 57°28' E 010°48'0 0.0
2014-Sep-19 00:27N 57°28' E 010°48'0 0.1
2014-Sep-18 23:30N 57°28' E 010°48'0 0.1
2014-Sep-18 22:33N 57°29' E 010°48'0 0.0
2014-Sep-18 21:33N 57°29' E 010°48'0 0.0
2014-Sep-18 20:27N 57°29' E 010°48'0 0.0
2014-Sep-18 19:06N 57°29' E 010°48'0 0.0
2014-Sep-18 18:30N 57°29' E 010°48'0 0.0
2014-Sep-18 17:30N 57°29' E 010°48'0 0.0
2014-Sep-18 16:30N 57°29' E 010°48'0 0.0
2014-Sep-18 15:33N 57°29' E 010°48'0 0.0
2014-Sep-18 14:30N 57°29' E 010°48'0 0.1
2014-Sep-18 13:33N 57°29' E 010°48'0 0.0
2014-Sep-18 12:33N 57°29' E 010°48'0 0.0
2014-Sep-18 11:33N 57°29' E 010°48'0 0.0
2014-Sep-18 10:30N 57°28' E 010°48'0 0.0
2014-Sep-18 09:15N 57°29' E 010°48'0 0.0
2014-Sep-18 08:09N 57°29' E 010°48'0 0.0
2014-Sep-18 07:33N 57°29' E 010°48'0 0.0
2014-Sep-18 06:24N 57°29' E 010°48'0 0.0
2014-Sep-18 05:30N 57°29' E 010°48'0 0.1
2014-Sep-18 04:33N 57°28' E 010°48'0 0.1
2014-Sep-18 03:33N 57°28' E 010°48'0 0.0
2014-Sep-18 02:33N 57°28' E 010°48'0 0.0
2014-Sep-18 01:24N 57°28' E 010°48'0 0.0
2014-Sep-18 00:27N 57°28' E 010°48'0 0.0
2014-Sep-17 23:33N 57°28' E 010°48'0 0.0
2014-Sep-17 22:18N 57°28' E 010°48'1 0.9
2014-Sep-17 21:33N 57°29' E 010°49'9 8.8
2014-Sep-17 20:33N 57°31' E 011°05'1110.7
2014-Sep-17 19:33N 57°29' E 011°24'1312.7
2014-Sep-17 18:33N 57°17' E 011°33'1312.9
2014-Sep-17 17:33N 57°05' E 011°41'1312.8
2014-Sep-17 16:33N 56°53' E 011°49'1111.4
2014-Sep-17 15:33N 56°41' E 011°49'1312.5
2014-Sep-17 14:33N 56°30' E 011°38'1212.3
2014-Sep-17 13:32N 56°20' E 011°26'1212.0
2014-Sep-17 12:33N 56°10' E 011°15'1312.5
2014-Sep-17 11:32N 55°59' E 011°03'1211.9
2014-Sep-17 10:30N 55°49' E 010°49'3012.2
2014-Sep-17 08:05N 55°21' E 011°02'812.3
2014-Sep-17 07:28N 55°14' E 011°06'1011.2
2014-Sep-17 06:32N 55°04' E 011°00'1212.2
2014-Sep-17 05:33N 54°53' E 010°51'1312.5
2014-Sep-17 04:33N 54°41' E 010°48'1212.2
2014-Sep-17 03:33N 54°36' E 011°07'1312.8
2014-Sep-17 02:33N 54°31' E 011°28'1312.7
2014-Sep-17 01:33N 54°27' E 011°48'1212.2
2014-Sep-17 00:33N 54°27' E 012°09'1211.5
2014-Sep-16 23:33N 54°37' E 012°18'1212.1
2014-Sep-16 22:33N 54°43' E 012°36'1212.0
2014-Sep-16 21:33N 54°49' E 012°54'1312.7
2014-Sep-16 20:33N 54°54' E 013°15'1312.9
2014-Sep-16 19:33N 54°59' E 013°35'1212.4
2014-Sep-16 18:33N 55°03' E 013°55'1212.4
2014-Sep-16 17:33N 55°08' E 014°15'1212.3
2014-Sep-16 16:33N 55°15' E 014°34'1010.0
2014-Sep-16 15:33N 55°19' E 014°49'1110.5
2014-Sep-16 14:33N 55°22' E 015°07'1212.2
2014-Sep-16 13:33N 55°27' E 015°27'1312.8
2014-Sep-16 12:32N 55°31' E 015°48'1412.8
2014-Sep-16 11:25N 55°35' E 016°13'1112.6
2014-Sep-16 10:33N 55°39' E 016°31'1412.2
2014-Sep-16 09:26N 55°48' E 016°48'1311.8
2014-Sep-16 08:19N 55°54' E 017°10'1012.1
2014-Sep-16 07:31N 55°57' E 017°26'1312.1
2014-Sep-16 06:26N 56°02' E 017°48'1212.1
2014-Sep-16 05:27N 56°08' E 018°06'1112.1
2014-Sep-16 04:33N 56°13' E 018°23'1312.3
2014-Sep-16 03:28N 56°20' E 018°43'1111.9
2014-Sep-16 02:32N 56°30' E 018°54'1512.1
2014-Sep-16 01:18N 56°43' E 019°06'912.1
2014-Sep-16 00:32N 56°51' E 019°14'1212.2
2014-Sep-15 23:33N 57°02' E 019°25'1212.2
2014-Sep-15 22:33N 57°12' E 019°35'18412.3
2014-Sep-15 07:33N 59°37' E 023°15'1312.5
2014-Sep-15 06:33N 59°40' E 023°38'1312.4
2014-Sep-15 05:33N 59°44' E 024°02'1212.5
2014-Sep-15 04:33N 59°47' E 024°26'1212.4
2014-Sep-15 03:33N 59°50' E 024°50'1312.6
2014-Sep-15 02:33N 59°52' E 025°15'1312.9
2014-Sep-15 01:33N 59°55' E 025°40'1312.8
2014-Sep-15 00:33N 59°57' E 026°05'1312.8
2014-Sep-14 23:33N 60°01' E 026°29'1212.5
2014-Sep-14 22:33N 59°60' E 026°54'1212.0
2014-Sep-14 21:32N 60°04' E 027°18'1312.9
2014-Sep-14 20:33N 60°10' E 027°39'  
Track history (hours):
 
Tides and Currents Weather Stations Pressure Air Temp Water Temp Dewpoint Dewpoint Depression Visibility Wind Speed Wind Dir Waves Ship Positions

Stena Atlantica

Last reported at 2014-Sep-21 05:15 UTC. Time now 2014-Sep-21 06:08 UTC.
Position N 57°25' E 010°46'.

Length 245 m; draft 8 m.

Type: Tanker. MMSI: 319161000.

Date/timePositionNaut miles runAvg speedWind from/ knotsBaromVisibWave heightAir tempDewpointWater temp
2014-Sep-21 05:15N 57°25' E 010°46'0 0.0
2014-Sep-21 04:30N 57°25' E 010°46'0 0.1
2014-Sep-21 02:33N 57°25' E 010°45'0 0.1
2014-Sep-21 00:33N 57°25' E 010°45'0 0.0
2014-Sep-20 23:33N 57°25' E 010°45'0 0.0
2014-Sep-20 22:33N 57°25' E 010°45'0 0.0
2014-Sep-20 21:30N 57°25' E 010°45'0 0.0
2014-Sep-20 20:18N 57°25' E 010°45'0 0.0
2014-Sep-20 19:33N 57°25' E 010°45'0 0.1
2014-Sep-20 18:30N 57°25' E 010°45'0 0.1
2014-Sep-20 17:33N 57°25' E 010°45'0 0.0
2014-Sep-20 16:33N 57°25' E 010°45'0 0.0
2014-Sep-20 15:33N 57°25' E 010°45'0 0.0
2014-Sep-20 14:33N 57°25' E 010°45'0 0.1
2014-Sep-20 13:33N 57°25' E 010°45'0 0.1
2014-Sep-20 12:33N 57°25' E 010°45'0 0.0
2014-Sep-20 11:33N 57°25' E 010°45'0 0.0
2014-Sep-20 10:24N 57°25' E 010°45'0 0.0
2014-Sep-20 09:24N 57°25' E 010°45'0 0.0
2014-Sep-20 08:33N 57°25' E 010°45'0 0.0
2014-Sep-20 07:33N 57°25' E 010°45'0 0.1
2014-Sep-20 06:27N 57°25' E 010°45'0 0.0
2014-Sep-20 05:30N 57°25' E 010°45'0 0.1
2014-Sep-20 04:30N 57°25' E 010°45'0 0.1
2014-Sep-20 03:27N 57°25' E 010°45'0 0.2
2014-Sep-20 02:33N 57°25' E 010°45'0 0.2
2014-Sep-20 00:33N 57°25' E 010°45'3 2.7
2014-Sep-19 23:32N 57°27' E 010°47'1 0.9
2014-Sep-19 22:27N 57°28' E 010°48'0 0.0
2014-Sep-19 21:27N 57°28' E 010°48'0 0.0
2014-Sep-19 20:33N 57°28' E 010°48'0 0.0
2014-Sep-19 19:33N 57°28' E 010°48'0 0.0
2014-Sep-19 18:27N 57°28' E 010°48'0 0.1
2014-Sep-19 17:18N 57°28' E 010°48'0 0.0
2014-Sep-19 16:27N 57°28' E 010°48'0 0.0
2014-Sep-19 15:30N 57°28' E 010°48'0 0.0
2014-Sep-19 14:33N 57°28' E 010°48'0 0.1
2014-Sep-19 13:27N 57°28' E 010°48'0 0.1
2014-Sep-19 12:33N 57°28' E 010°48'0 0.1
2014-Sep-19 11:15N 57°28' E 010°48'0 0.0
2014-Sep-19 10:18N 57°29' E 010°48'0 0.0
2014-Sep-19 09:15N 57°29' E 010°48'0 0.0
2014-Sep-19 08:33N 57°29' E 010°48'0 0.0
2014-Sep-19 07:30N 57°29' E 010°48'0 0.0
2014-Sep-19 06:33N 57°29' E 010°48'0 0.0
2014-Sep-19 05:33N 57°29' E 010°48'0 0.0
2014-Sep-19 04:30N 57°29' E 010°48'0 0.1
2014-Sep-19 03:33N 57°28' E 010°48'0 0.0
2014-Sep-19 02:30N 57°28' E 010°48'0 0.0
2014-Sep-19 01:33N 57°28' E 010°48'0 0.0
2014-Sep-19 00:27N 57°28' E 010°48'0 0.1
2014-Sep-18 23:30N 57°28' E 010°48'0 0.1
2014-Sep-18 22:33N 57°29' E 010°48'0 0.0
2014-Sep-18 21:33N 57°29' E 010°48'0 0.0
2014-Sep-18 20:27N 57°29' E 010°48'0 0.0
2014-Sep-18 19:06N 57°29' E 010°48'0 0.0
2014-Sep-18 18:30N 57°29' E 010°48'0 0.0
2014-Sep-18 17:30N 57°29' E 010°48'0 0.0
2014-Sep-18 16:30N 57°29' E 010°48'0 0.0
2014-Sep-18 15:33N 57°29' E 010°48'0 0.0
2014-Sep-18 14:30N 57°29' E 010°48'0 0.1
2014-Sep-18 13:33N 57°29' E 010°48'0 0.0
2014-Sep-18 12:33N 57°29' E 010°48'0 0.0
2014-Sep-18 11:33N 57°29' E 010°48'0 0.0
2014-Sep-18 10:30N 57°28' E 010°48'0 0.0
2014-Sep-18 09:15N 57°29' E 010°48'0 0.0
2014-Sep-18 08:09N 57°29' E 010°48'0 0.0
2014-Sep-18 07:33N 57°29' E 010°48'0 0.0
2014-Sep-18 06:24N 57°29' E 010°48'0 0.0
2014-Sep-18 05:30N 57°29' E 010°48'0 0.1
2014-Sep-18 04:33N 57°28' E 010°48'0 0.1
2014-Sep-18 03:33N 57°28' E 010°48'0 0.0
2014-Sep-18 02:33N 57°28' E 010°48'0 0.0
2014-Sep-18 01:24N 57°28' E 010°48'0 0.0
2014-Sep-18 00:27N 57°28' E 010°48'0 0.0
2014-Sep-17 23:33N 57°28' E 010°48'0 0.0
2014-Sep-17 22:18N 57°28' E 010°48'1 0.9
2014-Sep-17 21:33N 57°29' E 010°49'9 8.8
2014-Sep-17 20:33N 57°31' E 011°05'1110.7
2014-Sep-17 19:33N 57°29' E 011°24'1312.7
2014-Sep-17 18:33N 57°17' E 011°33'1312.9
2014-Sep-17 17:33N 57°05' E 011°41'1312.8
2014-Sep-17 16:33N 56°53' E 011°49'1111.4
2014-Sep-17 15:33N 56°41' E 011°49'1312.5
2014-Sep-17 14:33N 56°30' E 011°38'1212.3
2014-Sep-17 13:32N 56°20' E 011°26'1212.0
2014-Sep-17 12:33N 56°10' E 011°15'1312.5
2014-Sep-17 11:32N 55°59' E 011°03'1211.9
2014-Sep-17 10:30N 55°49' E 010°49'3012.2
2014-Sep-17 08:05N 55°21' E 011°02'812.3
2014-Sep-17 07:28N 55°14' E 011°06'1011.2
2014-Sep-17 06:32N 55°04' E 011°00'1212.2
2014-Sep-17 05:33N 54°53' E 010°51'1312.5
2014-Sep-17 04:33N 54°41' E 010°48'1212.2
2014-Sep-17 03:33N 54°36' E 011°07'1312.8
2014-Sep-17 02:33N 54°31' E 011°28'1312.7
2014-Sep-17 01:33N 54°27' E 011°48'1212.2
2014-Sep-17 00:33N 54°27' E 012°09'1211.5
2014-Sep-16 23:33N 54°37' E 012°18'1212.1
2014-Sep-16 22:33N 54°43' E 012°36'1212.0
2014-Sep-16 21:33N 54°49' E 012°54'1312.7
2014-Sep-16 20:33N 54°54' E 013°15'1312.9
2014-Sep-16 19:33N 54°59' E 013°35'1212.4
2014-Sep-16 18:33N 55°03' E 013°55'1212.4
2014-Sep-16 17:33N 55°08' E 014°15'1212.3
2014-Sep-16 16:33N 55°15' E 014°34'1010.0
2014-Sep-16 15:33N 55°19' E 014°49'1110.5
2014-Sep-16 14:33N 55°22' E 015°07'1212.2
2014-Sep-16 13:33N 55°27' E 015°27'1312.8
2014-Sep-16 12:32N 55°31' E 015°48'1412.8
2014-Sep-16 11:25N 55°35' E 016°13'1112.6
2014-Sep-16 10:33N 55°39' E 016°31'1412.2
2014-Sep-16 09:26N 55°48' E 016°48'1311.8
2014-Sep-16 08:19N 55°54' E 017°10'1012.1
2014-Sep-16 07:31N 55°57' E 017°26'1312.1
2014-Sep-16 06:26N 56°02' E 017°48'1212.1
2014-Sep-16 05:27N 56°08' E 018°06'1112.1
2014-Sep-16 04:33N 56°13' E 018°23'1312.3
2014-Sep-16 03:28N 56°20' E 018°43'1111.9
2014-Sep-16 02:32N 56°30' E 018°54'1512.1
2014-Sep-16 01:18N 56°43' E 019°06'912.1
2014-Sep-16 00:32N 56°51' E 019°14'1212.2
2014-Sep-15 23:33N 57°02' E 019°25'1212.2
2014-Sep-15 22:33N 57°12' E 019°35'18412.3
2014-Sep-15 07:33N 59°37' E 023°15'1312.5
2014-Sep-15 06:33N 59°40' E 023°38'1312.4
2014-Sep-15 05:33N 59°44' E 024°02'1212.5
2014-Sep-15 04:33N 59°47' E 024°26'1212.4
2014-Sep-15 03:33N 59°50' E 024°50'1312.6
2014-Sep-15 02:33N 59°52' E 025°15'1312.9
2014-Sep-15 01:33N 59°55' E 025°40'1312.8
2014-Sep-15 00:33N 59°57' E 026°05'1312.8
2014-Sep-14 23:33N 60°01' E 026°29'1212.5
2014-Sep-14 22:33N 59°60' E 026°54'1212.0
2014-Sep-14 21:32N 60°04' E 027°18'1312.9
2014-Sep-14 20:33N 60°10' E 027°39'  

Dump ship's entire track history